sensor_id;sensor_type;location;lat;lon;timestamp;P1;durP1;ratioP1;P2;durP2;ratioP2
61104;SDS011;46987;32.638;-115.438;2022-11-27T00:01:14;18.95;;;5.18;;
61104;SDS011;46987;32.638;-115.438;2022-11-27T00:03:41;18.17;;;4.65;;
61104;SDS011;46987;32.638;-115.438;2022-11-27T00:06:10;18.55;;;4.80;;
61104;SDS011;46987;32.638;-115.438;2022-11-27T00:08:41;18.20;;;4.32;;
61104;SDS011;46987;32.638;-115.438;2022-11-27T00:11:11;16.98;;;5.18;;
61104;SDS011;46987;32.638;-115.438;2022-11-27T00:13:38;26.90;;;5.70;;
61104;SDS011;46987;32.638;-115.438;2022-11-27T00:16:05;15.80;;;5.57;;
61104;SDS011;46987;32.638;-115.438;2022-11-27T00:18:32;19.58;;;5.97;;
61104;SDS011;46987;32.638;-115.438;2022-11-27T00:21:07;22.75;;;6.65;;
61104;SDS011;46987;32.638;-115.438;2022-11-27T00:23:36;24.55;;;5.75;;
61104;SDS011;46987;32.638;-115.438;2022-11-27T00:26:03;20.92;;;5.40;;
61104;SDS011;46987;32.638;-115.438;2022-11-27T00:28:37;14.13;;;4.75;;
61104;SDS011;46987;32.638;-115.438;2022-11-27T00:31:04;15.73;;;4.80;;
61104;SDS011;46987;32.638;-115.438;2022-11-27T00:33:34;19.88;;;5.35;;
61104;SDS011;46987;32.638;-115.438;2022-11-27T00:39:08;25.87;;;7.53;;
61104;SDS011;46987;32.638;-115.438;2022-11-27T00:41:35;30.52;;;10.65;;
61104;SDS011;46987;32.638;-115.438;2022-11-27T00:44:01;31.13;;;9.15;;
61104;SDS011;46987;32.638;-115.438;2022-11-27T00:46:32;22.42;;;9.45;;
61104;SDS011;46987;32.638;-115.438;2022-11-27T00:49:06;19.98;;;9.48;;
61104;SDS011;46987;32.638;-115.438;2022-11-27T00:51:33;26.38;;;9.40;;
61104;SDS011;46987;32.638;-115.438;2022-11-27T00:54:00;23.42;;;9.63;;
61104;SDS011;46987;32.638;-115.438;2022-11-27T00:56:29;25.67;;;9.98;;
61104;SDS011;46987;32.638;-115.438;2022-11-27T00:58:55;22.55;;;9.32;;
61104;SDS011;46987;32.638;-115.438;2022-11-27T01:01:23;18.92;;;8.07;;
61104;SDS011;46987;32.638;-115.438;2022-11-27T01:03:50;28.67;;;10.18;;
61104;SDS011;46987;32.638;-115.438;2022-11-27T01:06:17;29.38;;;11.07;;
61104;SDS011;46987;32.638;-115.438;2022-11-27T01:08:44;40.00;;;12.95;;
61104;SDS011;46987;32.638;-115.438;2022-11-27T01:11:12;34.97;;;13.75;;
61104;SDS011;46987;32.638;-115.438;2022-11-27T01:13:41;34.53;;;13.43;;
61104;SDS011;46987;32.638;-115.438;2022-11-27T01:16:09;34.88;;;16.25;;
61104;SDS011;46987;32.638;-115.438;2022-11-27T01:18:36;35.25;;;13.73;;
61104;SDS011;46987;32.638;-115.438;2022-11-27T01:21:03;41.95;;;15.45;;
61104;SDS011;46987;32.638;-115.438;2022-11-27T01:23:32;37.88;;;15.80;;
61104;SDS011;46987;32.638;-115.438;2022-11-27T01:25:59;36.22;;;15.70;;
61104;SDS011;46987;32.638;-115.438;2022-11-27T01:28:25;31.83;;;14.45;;
61104;SDS011;46987;32.638;-115.438;2022-11-27T01:30:54;34.60;;;15.88;;
61104;SDS011;46987;32.638;-115.438;2022-11-27T01:33:21;29.40;;;13.52;;
61104;SDS011;46987;32.638;-115.438;2022-11-27T01:35:54;41.38;;;14.90;;
61104;SDS011;46987;32.638;-115.438;2022-11-27T01:38:24;45.63;;;15.32;;
61104;SDS011;46987;32.638;-115.438;2022-11-27T01:40:55;50.38;;;16.67;;
61104;SDS011;46987;32.638;-115.438;2022-11-27T01:43:34;44.00;;;16.80;;
61104;SDS011;46987;32.638;-115.438;2022-11-27T01:46:03;45.22;;;15.13;;
61104;SDS011;46987;32.638;-115.438;2022-11-27T01:48:30;34.17;;;14.23;;
61104;SDS011;46987;32.638;-115.438;2022-11-27T01:50:57;45.13;;;17.52;;
61104;SDS011;46987;32.638;-115.438;2022-11-27T01:53:26;50.22;;;16.60;;
61104;SDS011;46987;32.638;-115.438;2022-11-27T01:55:54;38.97;;;16.23;;
61104;SDS011;46987;32.638;-115.438;2022-11-27T01:58:22;42.65;;;15.38;;
61104;SDS011;46987;32.638;-115.438;2022-11-27T02:00:49;37.08;;;14.77;;
61104;SDS011;46987;32.638;-115.438;2022-11-27T02:03:17;33.45;;;14.90;;
61104;SDS011;46987;32.638;-115.438;2022-11-27T02:05:44;42.28;;;15.57;;
61104;SDS011;46987;32.638;-115.438;2022-11-27T02:08:12;51.75;;;21.25;;
61104;SDS011;46987;32.638;-115.438;2022-11-27T02:10:42;40.03;;;17.98;;
61104;SDS011;46987;32.638;-115.438;2022-11-27T02:13:11;46.67;;;17.50;;
61104;SDS011;46987;32.638;-115.438;2022-11-27T02:15:39;52.72;;;20.27;;
61104;SDS011;46987;32.638;-115.438;2022-11-27T02:18:09;64.90;;;22.85;;
61104;SDS011;46987;32.638;-115.438;2022-11-27T02:20:42;53.65;;;22.52;;
61104;SDS011;46987;32.638;-115.438;2022-11-27T02:26:25;53.75;;;25.90;;
61104;SDS011;46987;32.638;-115.438;2022-11-27T02:29:02;77.22;;;27.15;;
61104;SDS011;46987;32.638;-115.438;2022-11-27T02:33:55;69.78;;;25.92;;
61104;SDS011;46987;32.638;-115.438;2022-11-27T02:36:25;63.95;;;26.85;;
61104;SDS011;46987;32.638;-115.438;2022-11-27T02:38:57;74.20;;;30.25;;
61104;SDS011;46987;32.638;-115.438;2022-11-27T02:41:25;64.40;;;30.05;;
61104;SDS011;46987;32.638;-115.438;2022-11-27T02:43:53;78.53;;;30.92;;
61104;SDS011;46987;32.638;-115.438;2022-11-27T02:46:22;65.75;;;26.90;;
61104;SDS011;46987;32.638;-115.438;2022-11-27T02:48:50;65.55;;;26.67;;
61104;SDS011;46987;32.638;-115.438;2022-11-27T02:51:18;65.90;;;25.98;;
61104;SDS011;46987;32.638;-115.438;2022-11-27T02:53:47;69.90;;;28.45;;
61104;SDS011;46987;32.638;-115.438;2022-11-27T02:56:17;54.97;;;26.58;;
61104;SDS011;46987;32.638;-115.438;2022-11-27T02:58:45;62.72;;;28.35;;
61104;SDS011;46987;32.638;-115.438;2022-11-27T03:01:12;64.82;;;28.35;;
61104;SDS011;46987;32.638;-115.438;2022-11-27T03:03:42;64.13;;;28.08;;
61104;SDS011;46987;32.638;-115.438;2022-11-27T03:06:10;62.97;;;29.20;;
61104;SDS011;46987;32.638;-115.438;2022-11-27T03:08:40;57.97;;;28.05;;
61104;SDS011;46987;32.638;-115.438;2022-11-27T03:11:08;55.80;;;27.83;;
61104;SDS011;46987;32.638;-115.438;2022-11-27T03:13:36;72.38;;;29.67;;
61104;SDS011;46987;32.638;-115.438;2022-11-27T03:16:04;64.22;;;28.58;;
61104;SDS011;46987;32.638;-115.438;2022-11-27T03:18:34;72.07;;;28.33;;
61104;SDS011;46987;32.638;-115.438;2022-11-27T03:21:04;74.43;;;28.38;;
61104;SDS011;46987;32.638;-115.438;2022-11-27T03:23:34;68.22;;;28.38;;
61104;SDS011;46987;32.638;-115.438;2022-11-27T03:26:01;86.30;;;30.30;;
61104;SDS011;46987;32.638;-115.438;2022-11-27T03:28:27;77.93;;;30.30;;
61104;SDS011;46987;32.638;-115.438;2022-11-27T03:30:54;82.80;;;31.17;;
61104;SDS011;46987;32.638;-115.438;2022-11-27T03:33:21;71.13;;;30.67;;
61104;SDS011;46987;32.638;-115.438;2022-11-27T03:35:47;62.88;;;29.08;;
61104;SDS011;46987;32.638;-115.438;2022-11-27T03:38:17;86.07;;;33.03;;
61104;SDS011;46987;32.638;-115.438;2022-11-27T03:40:45;69.97;;;30.58;;
61104;SDS011;46987;32.638;-115.438;2022-11-27T03:43:17;88.22;;;34.28;;
61104;SDS011;46987;32.638;-115.438;2022-11-27T03:45:47;73.25;;;30.58;;
61104;SDS011;46987;32.638;-115.438;2022-11-27T03:48:19;74.53;;;29.60;;
61104;SDS011;46987;32.638;-115.438;2022-11-27T03:51:20;87.97;;;31.98;;
61104;SDS011;46987;32.638;-115.438;2022-11-27T03:53:54;82.82;;;30.70;;
61104;SDS011;46987;32.638;-115.438;2022-11-27T03:56:27;72.57;;;33.25;;
61104;SDS011;46987;32.638;-115.438;2022-11-27T03:59:00;74.68;;;31.60;;
61104;SDS011;46987;32.638;-115.438;2022-11-27T04:01:47;99.80;;;36.08;;
61104;SDS011;46987;32.638;-115.438;2022-11-27T04:04:14;88.53;;;35.25;;
61104;SDS011;46987;32.638;-115.438;2022-11-27T04:06:43;69.03;;;35.65;;
61104;SDS011;46987;32.638;-115.438;2022-11-27T04:09:17;89.95;;;34.72;;
61104;SDS011;46987;32.638;-115.438;2022-11-27T04:14:44;86.03;;;34.67;;
61104;SDS011;46987;32.638;-115.438;2022-11-27T04:17:16;83.97;;;33.83;;
61104;SDS011;46987;32.638;-115.438;2022-11-27T04:19:45;94.45;;;34.10;;
61104;SDS011;46987;32.638;-115.438;2022-11-27T04:22:14;85.43;;;37.05;;
61104;SDS011;46987;32.638;-115.438;2022-11-27T04:24:42;95.45;;;36.35;;
61104;SDS011;46987;32.638;-115.438;2022-11-27T04:27:12;87.80;;;36.65;;
61104;SDS011;46987;32.638;-115.438;2022-11-27T04:32:23;74.32;;;32.58;;
61104;SDS011;46987;32.638;-115.438;2022-11-27T04:34:54;77.85;;;31.75;;
61104;SDS011;46987;32.638;-115.438;2022-11-27T04:37:24;73.67;;;33.13;;
61104;SDS011;46987;32.638;-115.438;2022-11-27T04:39:55;63.55;;;28.38;;
61104;SDS011;46987;32.638;-115.438;2022-11-27T04:42:22;62.95;;;26.00;;
61104;SDS011;46987;32.638;-115.438;2022-11-27T04:44:49;55.80;;;25.83;;
61104;SDS011;46987;32.638;-115.438;2022-11-27T04:47:17;55.85;;;23.38;;
61104;SDS011;46987;32.638;-115.438;2022-11-27T04:49:44;55.38;;;21.85;;
61104;SDS011;46987;32.638;-115.438;2022-11-27T04:52:10;56.28;;;18.50;;
61104;SDS011;46987;32.638;-115.438;2022-11-27T04:54:37;47.30;;;17.58;;
61104;SDS011;46987;32.638;-115.438;2022-11-27T04:57:05;47.05;;;15.60;;
61104;SDS011;46987;32.638;-115.438;2022-11-27T04:59:32;50.85;;;15.63;;
61104;SDS011;46987;32.638;-115.438;2022-11-27T05:01:58;45.30;;;17.27;;
61104;SDS011;46987;32.638;-115.438;2022-11-27T05:04:27;49.67;;;17.73;;
61104;SDS011;46987;32.638;-115.438;2022-11-27T05:06:53;57.25;;;17.00;;
61104;SDS011;46987;32.638;-115.438;2022-11-27T05:09:20;43.17;;;15.20;;
61104;SDS011;46987;32.638;-115.438;2022-11-27T05:11:46;47.88;;;15.60;;
61104;SDS011;46987;32.638;-115.438;2022-11-27T05:14:22;32.05;;;14.13;;
61104;SDS011;46987;32.638;-115.438;2022-11-27T05:16:54;52.58;;;19.67;;
61104;SDS011;46987;32.638;-115.438;2022-11-27T05:19:22;45.58;;;20.30;;
61104;SDS011;46987;32.638;-115.438;2022-11-27T05:21:49;40.33;;;17.25;;
61104;SDS011;46987;32.638;-115.438;2022-11-27T05:24:16;42.33;;;17.27;;
61104;SDS011;46987;32.638;-115.438;2022-11-27T05:26:43;36.92;;;18.02;;
61104;SDS011;46987;32.638;-115.438;2022-11-27T05:29:10;37.67;;;18.90;;
61104;SDS011;46987;32.638;-115.438;2022-11-27T05:31:38;35.13;;;16.38;;
61104;SDS011;46987;32.638;-115.438;2022-11-27T05:34:05;46.50;;;18.63;;
61104;SDS011;46987;32.638;-115.438;2022-11-27T05:36:31;34.53;;;16.65;;
61104;SDS011;46987;32.638;-115.438;2022-11-27T05:38:58;33.13;;;15.30;;
61104;SDS011;46987;32.638;-115.438;2022-11-27T05:41:25;34.63;;;15.38;;
61104;SDS011;46987;32.638;-115.438;2022-11-27T05:43:51;31.90;;;13.05;;
61104;SDS011;46987;32.638;-115.438;2022-11-27T05:46:19;29.63;;;12.32;;
61104;SDS011;46987;32.638;-115.438;2022-11-27T05:48:47;25.95;;;11.40;;
61104;SDS011;46987;32.638;-115.438;2022-11-27T05:51:13;26.20;;;9.90;;
61104;SDS011;46987;32.638;-115.438;2022-11-27T05:53:40;23.92;;;10.38;;
61104;SDS011;46987;32.638;-115.438;2022-11-27T05:56:07;27.58;;;11.50;;
61104;SDS011;46987;32.638;-115.438;2022-11-27T05:58:34;28.90;;;12.30;;
61104;SDS011;46987;32.638;-115.438;2022-11-27T06:01:01;27.50;;;11.20;;
61104;SDS011;46987;32.638;-115.438;2022-11-27T06:03:35;25.17;;;10.50;;
61104;SDS011;46987;32.638;-115.438;2022-11-27T06:06:09;19.15;;;9.73;;
61104;SDS011;46987;32.638;-115.438;2022-11-27T06:08:35;26.92;;;11.02;;
61104;SDS011;46987;32.638;-115.438;2022-11-27T06:11:06;28.67;;;10.82;;
61104;SDS011;46987;32.638;-115.438;2022-11-27T06:13:33;24.42;;;7.95;;
61104;SDS011;46987;32.638;-115.438;2022-11-27T06:16:07;23.98;;;7.70;;
61104;SDS011;46987;32.638;-115.438;2022-11-27T06:18:34;19.63;;;8.02;;
61104;SDS011;46987;32.638;-115.438;2022-11-27T06:21:04;15.57;;;7.30;;
61104;SDS011;46987;32.638;-115.438;2022-11-27T06:23:32;25.27;;;8.70;;
61104;SDS011;46987;32.638;-115.438;2022-11-27T06:26:07;19.63;;;7.70;;
61104;SDS011;46987;32.638;-115.438;2022-11-27T06:28:34;20.85;;;8.10;;
61104;SDS011;46987;32.638;-115.438;2022-11-27T06:31:04;28.95;;;7.90;;
61104;SDS011;46987;32.638;-115.438;2022-11-27T06:33:31;20.23;;;8.10;;
61104;SDS011;46987;32.638;-115.438;2022-11-27T06:35:57;25.45;;;9.52;;
61104;SDS011;46987;32.638;-115.438;2022-11-27T06:38:24;30.80;;;10.40;;
61104;SDS011;46987;32.638;-115.438;2022-11-27T06:40:52;22.77;;;10.35;;
61104;SDS011;46987;32.638;-115.438;2022-11-27T06:43:18;25.17;;;10.02;;
61104;SDS011;46987;32.638;-115.438;2022-11-27T06:45:53;27.20;;;10.70;;
61104;SDS011;46987;32.638;-115.438;2022-11-27T06:48:19;29.55;;;11.60;;
61104;SDS011;46987;32.638;-115.438;2022-11-27T06:50:46;26.90;;;11.40;;
61104;SDS011;46987;32.638;-115.438;2022-11-27T06:53:12;33.45;;;11.27;;
61104;SDS011;46987;32.638;-115.438;2022-11-27T06:55:39;30.67;;;11.45;;
61104;SDS011;46987;32.638;-115.438;2022-11-27T06:58:07;33.35;;;12.07;;
61104;SDS011;46987;32.638;-115.438;2022-11-27T07:00:33;29.35;;;11.80;;
61104;SDS011;46987;32.638;-115.438;2022-11-27T07:03:00;28.75;;;11.27;;
61104;SDS011;46987;32.638;-115.438;2022-11-27T07:05:27;30.23;;;11.77;;
61104;SDS011;46987;32.638;-115.438;2022-11-27T07:07:58;39.70;;;12.68;;
61104;SDS011;46987;32.638;-115.438;2022-11-27T07:10:25;37.90;;;12.38;;
61104;SDS011;46987;32.638;-115.438;2022-11-27T07:12:51;27.38;;;12.65;;
61104;SDS011;46987;32.638;-115.438;2022-11-27T07:15:19;29.33;;;13.43;;
61104;SDS011;46987;32.638;-115.438;2022-11-27T07:17:46;45.92;;;13.73;;
61104;SDS011;46987;32.638;-115.438;2022-11-27T07:20:13;33.45;;;13.65;;
61104;SDS011;46987;32.638;-115.438;2022-11-27T07:22:39;34.97;;;15.15;;
61104;SDS011;46987;32.638;-115.438;2022-11-27T07:25:06;38.88;;;15.50;;
61104;SDS011;46987;32.638;-115.438;2022-11-27T07:27:32;36.63;;;14.70;;
61104;SDS011;46987;32.638;-115.438;2022-11-27T07:29:59;32.88;;;15.02;;
61104;SDS011;46987;32.638;-115.438;2022-11-27T07:32:27;41.70;;;17.83;;
61104;SDS011;46987;32.638;-115.438;2022-11-27T07:34:54;50.60;;;16.13;;
61104;SDS011;46987;32.638;-115.438;2022-11-27T07:37:20;46.92;;;16.98;;
61104;SDS011;46987;32.638;-115.438;2022-11-27T07:39:47;48.97;;;17.92;;
61104;SDS011;46987;32.638;-115.438;2022-11-27T07:42:14;45.47;;;17.58;;
61104;SDS011;46987;32.638;-115.438;2022-11-27T07:44:40;52.75;;;19.02;;
61104;SDS011;46987;32.638;-115.438;2022-11-27T07:47:06;48.55;;;18.92;;
61104;SDS011;46987;32.638;-115.438;2022-11-27T07:49:35;48.90;;;19.25;;
61104;SDS011;46987;32.638;-115.438;2022-11-27T07:52:01;45.58;;;18.17;;
61104;SDS011;46987;32.638;-115.438;2022-11-27T07:54:28;46.55;;;18.70;;
61104;SDS011;46987;32.638;-115.438;2022-11-27T07:56:54;49.83;;;18.80;;
61104;SDS011;46987;32.638;-115.438;2022-11-27T07:59:23;45.17;;;20.65;;
61104;SDS011;46987;32.638;-115.438;2022-11-27T08:01:58;43.97;;;20.83;;
61104;SDS011;46987;32.638;-115.438;2022-11-27T08:04:25;53.50;;;20.17;;
61104;SDS011;46987;32.638;-115.438;2022-11-27T08:06:54;63.17;;;21.85;;
61104;SDS011;46987;32.638;-115.438;2022-11-27T08:09:22;57.78;;;21.52;;
61104;SDS011;46987;32.638;-115.438;2022-11-27T08:11:48;59.33;;;22.80;;
61104;SDS011;46987;32.638;-115.438;2022-11-27T08:14:15;67.45;;;23.65;;
61104;SDS011;46987;32.638;-115.438;2022-11-27T08:16:44;59.70;;;24.52;;
61104;SDS011;46987;32.638;-115.438;2022-11-27T08:19:10;59.92;;;22.58;;
61104;SDS011;46987;32.638;-115.438;2022-11-27T08:21:36;69.28;;;24.77;;
61104;SDS011;46987;32.638;-115.438;2022-11-27T08:24:05;58.83;;;26.27;;
61104;SDS011;46987;32.638;-115.438;2022-11-27T08:26:31;66.50;;;26.20;;
61104;SDS011;46987;32.638;-115.438;2022-11-27T08:28:58;70.93;;;25.45;;
61104;SDS011;46987;32.638;-115.438;2022-11-27T08:31:24;78.70;;;27.02;;
61104;SDS011;46987;32.638;-115.438;2022-11-27T08:33:51;57.65;;;26.80;;
61104;SDS011;46987;32.638;-115.438;2022-11-27T08:36:21;68.65;;;27.08;;
61104;SDS011;46987;32.638;-115.438;2022-11-27T08:38:51;68.78;;;27.70;;
61104;SDS011;46987;32.638;-115.438;2022-11-27T08:41:19;67.10;;;28.45;;
61104;SDS011;46987;32.638;-115.438;2022-11-27T08:43:46;67.28;;;28.48;;
61104;SDS011;46987;32.638;-115.438;2022-11-27T08:46:12;68.55;;;28.35;;
61104;SDS011;46987;32.638;-115.438;2022-11-27T08:48:39;58.30;;;26.50;;
61104;SDS011;46987;32.638;-115.438;2022-11-27T08:51:07;63.03;;;25.98;;
61104;SDS011;46987;32.638;-115.438;2022-11-27T08:53:34;59.05;;;25.70;;
61104;SDS011;46987;32.638;-115.438;2022-11-27T08:56:06;61.08;;;24.23;;
61104;SDS011;46987;32.638;-115.438;2022-11-27T08:58:34;49.63;;;23.08;;
61104;SDS011;46987;32.638;-115.438;2022-11-27T09:01:05;48.92;;;23.98;;
61104;SDS011;46987;32.638;-115.438;2022-11-27T09:03:32;51.05;;;23.40;;
61104;SDS011;46987;32.638;-115.438;2022-11-27T09:05:59;54.50;;;24.88;;
61104;SDS011;46987;32.638;-115.438;2022-11-27T09:08:25;49.90;;;22.70;;
61104;SDS011;46987;32.638;-115.438;2022-11-27T09:10:51;57.58;;;24.42;;
61104;SDS011;46987;32.638;-115.438;2022-11-27T09:13:18;55.13;;;24.50;;
61104;SDS011;46987;32.638;-115.438;2022-11-27T09:15:46;77.45;;;24.65;;
61104;SDS011;46987;32.638;-115.438;2022-11-27T09:18:13;54.67;;;24.88;;
61104;SDS011;46987;32.638;-115.438;2022-11-27T09:20:39;54.60;;;22.65;;
61104;SDS011;46987;32.638;-115.438;2022-11-27T09:23:06;58.22;;;23.75;;
61104;SDS011;46987;32.638;-115.438;2022-11-27T09:25:32;67.25;;;23.85;;
61104;SDS011;46987;32.638;-115.438;2022-11-27T09:27:59;76.30;;;25.92;;
61104;SDS011;46987;32.638;-115.438;2022-11-27T09:30:26;56.97;;;22.75;;
61104;SDS011;46987;32.638;-115.438;2022-11-27T09:32:54;56.53;;;23.33;;
61104;SDS011;46987;32.638;-115.438;2022-11-27T09:35:20;66.15;;;24.58;;
61104;SDS011;46987;32.638;-115.438;2022-11-27T09:37:47;55.97;;;22.02;;
61104;SDS011;46987;32.638;-115.438;2022-11-27T09:40:14;51.50;;;21.50;;
61104;SDS011;46987;32.638;-115.438;2022-11-27T09:42:43;60.05;;;21.38;;
61104;SDS011;46987;32.638;-115.438;2022-11-27T09:45:12;58.58;;;22.90;;
61104;SDS011;46987;32.638;-115.438;2022-11-27T09:47:42;54.63;;;21.98;;
61104;SDS011;46987;32.638;-115.438;2022-11-27T09:50:14;66.20;;;23.73;;
61104;SDS011;46987;32.638;-115.438;2022-11-27T09:52:41;58.78;;;22.15;;
61104;SDS011;46987;32.638;-115.438;2022-11-27T09:55:10;70.80;;;24.15;;
61104;SDS011;46987;32.638;-115.438;2022-11-27T09:57:38;53.28;;;22.02;;
61104;SDS011;46987;32.638;-115.438;2022-11-27T10:00:09;62.58;;;23.13;;
61104;SDS011;46987;32.638;-115.438;2022-11-27T10:02:36;51.00;;;22.13;;
61104;SDS011;46987;32.638;-115.438;2022-11-27T10:05:03;61.17;;;23.70;;
61104;SDS011;46987;32.638;-115.438;2022-11-27T10:07:38;57.75;;;23.23;;
61104;SDS011;46987;32.638;-115.438;2022-11-27T10:10:10;57.50;;;23.70;;
61104;SDS011;46987;32.638;-115.438;2022-11-27T10:12:42;61.55;;;23.40;;
61104;SDS011;46987;32.638;-115.438;2022-11-27T10:15:12;64.78;;;23.48;;
61104;SDS011;46987;32.638;-115.438;2022-11-27T10:17:42;49.05;;;21.63;;
61104;SDS011;46987;32.638;-115.438;2022-11-27T10:20:11;60.22;;;22.17;;
61104;SDS011;46987;32.638;-115.438;2022-11-27T10:22:45;58.80;;;24.70;;
61104;SDS011;46987;32.638;-115.438;2022-11-27T10:27:39;59.10;;;23.42;;
61104;SDS011;46987;32.638;-115.438;2022-11-27T10:30:12;65.53;;;24.17;;
61104;SDS011;46987;32.638;-115.438;2022-11-27T10:32:38;63.72;;;23.58;;
61104;SDS011;46987;32.638;-115.438;2022-11-27T10:35:08;54.90;;;23.92;;
61104;SDS011;46987;32.638;-115.438;2022-11-27T10:37:38;60.88;;;23.98;;
61104;SDS011;46987;32.638;-115.438;2022-11-27T10:40:07;56.78;;;23.13;;
61104;SDS011;46987;32.638;-115.438;2022-11-27T10:42:43;65.60;;;24.63;;
61104;SDS011;46987;32.638;-115.438;2022-11-27T10:45:16;56.05;;;22.00;;
61104;SDS011;46987;32.638;-115.438;2022-11-27T10:50:13;55.17;;;22.67;;
61104;SDS011;46987;32.638;-115.438;2022-11-27T10:52:43;56.83;;;23.48;;
61104;SDS011;46987;32.638;-115.438;2022-11-27T10:55:15;51.33;;;21.35;;
61104;SDS011;46987;32.638;-115.438;2022-11-27T10:57:49;52.10;;;23.00;;
61104;SDS011;46987;32.638;-115.438;2022-11-27T11:00:20;65.47;;;21.52;;
61104;SDS011;46987;32.638;-115.438;2022-11-27T11:02:47;54.25;;;22.02;;
61104;SDS011;46987;32.638;-115.438;2022-11-27T11:05:21;56.33;;;19.92;;
61104;SDS011;46987;32.638;-115.438;2022-11-27T11:07:59;47.70;;;19.45;;
61104;SDS011;46987;32.638;-115.438;2022-11-27T11:10:32;48.75;;;19.83;;
61104;SDS011;46987;32.638;-115.438;2022-11-27T11:13:08;36.22;;;18.48;;
61104;SDS011;46987;32.638;-115.438;2022-11-27T11:15:43;42.95;;;18.58;;
61104;SDS011;46987;32.638;-115.438;2022-11-27T11:18:15;49.53;;;20.75;;
61104;SDS011;46987;32.638;-115.438;2022-11-27T11:20:42;45.72;;;18.52;;
61104;SDS011;46987;32.638;-115.438;2022-11-27T11:23:15;51.30;;;19.88;;
61104;SDS011;46987;32.638;-115.438;2022-11-27T11:25:49;42.92;;;18.83;;
61104;SDS011;46987;32.638;-115.438;2022-11-27T11:28:16;35.22;;;17.88;;
61104;SDS011;46987;32.638;-115.438;2022-11-27T11:30:50;50.10;;;17.35;;
61104;SDS011;46987;32.638;-115.438;2022-11-27T11:33:17;44.72;;;17.05;;
61104;SDS011;46987;32.638;-115.438;2022-11-27T11:35:49;49.03;;;18.58;;
61104;SDS011;46987;32.638;-115.438;2022-11-27T11:38:16;55.92;;;17.20;;
61104;SDS011;46987;32.638;-115.438;2022-11-27T11:40:43;39.42;;;17.67;;
61104;SDS011;46987;32.638;-115.438;2022-11-27T11:43:24;43.22;;;18.10;;
61104;SDS011;46987;32.638;-115.438;2022-11-27T11:45:51;47.72;;;17.55;;
61104;SDS011;46987;32.638;-115.438;2022-11-27T11:48:19;39.83;;;17.25;;
61104;SDS011;46987;32.638;-115.438;2022-11-27T11:50:48;43.80;;;16.85;;
61104;SDS011;46987;32.638;-115.438;2022-11-27T11:53:19;38.95;;;18.35;;
61104;SDS011;46987;32.638;-115.438;2022-11-27T11:55:49;42.78;;;16.70;;
61104;SDS011;46987;32.638;-115.438;2022-11-27T11:58:23;42.08;;;18.17;;
61104;SDS011;46987;32.638;-115.438;2022-11-27T12:00:58;66.43;;;20.40;;
61104;SDS011;46987;32.638;-115.438;2022-11-27T12:03:29;47.50;;;18.75;;
61104;SDS011;46987;32.638;-115.438;2022-11-27T12:06:05;48.30;;;19.75;;
61104;SDS011;46987;32.638;-115.438;2022-11-27T12:08:39;45.65;;;18.50;;
61104;SDS011;46987;32.638;-115.438;2022-11-27T12:11:07;39.85;;;19.90;;
61104;SDS011;46987;32.638;-115.438;2022-11-27T12:13:43;45.78;;;18.90;;
61104;SDS011;46987;32.638;-115.438;2022-11-27T12:16:14;33.33;;;19.20;;
61104;SDS011;46987;32.638;-115.438;2022-11-27T12:18:45;46.28;;;19.02;;
61104;SDS011;46987;32.638;-115.438;2022-11-27T12:21:14;46.80;;;19.17;;
61104;SDS011;46987;32.638;-115.438;2022-11-27T12:23:44;38.75;;;18.52;;
61104;SDS011;46987;32.638;-115.438;2022-11-27T12:26:16;42.47;;;20.10;;
61104;SDS011;46987;32.638;-115.438;2022-11-27T12:31:31;35.30;;;16.33;;
61104;SDS011;46987;32.638;-115.438;2022-11-27T12:34:03;36.45;;;16.13;;
61104;SDS011;46987;32.638;-115.438;2022-11-27T12:36:35;41.42;;;18.38;;
61104;SDS011;46987;32.638;-115.438;2022-11-27T12:39:09;44.75;;;18.75;;
61104;SDS011;46987;32.638;-115.438;2022-11-27T12:41:48;39.53;;;17.60;;
61104;SDS011;46987;32.638;-115.438;2022-11-27T12:44:18;50.40;;;20.80;;
61104;SDS011;46987;32.638;-115.438;2022-11-27T12:46:50;46.90;;;17.48;;
61104;SDS011;46987;32.638;-115.438;2022-11-27T12:49:19;40.85;;;17.85;;
61104;SDS011;46987;32.638;-115.438;2022-11-27T12:51:47;36.63;;;18.52;;
61104;SDS011;46987;32.638;-115.438;2022-11-27T12:54:16;47.70;;;20.23;;
61104;SDS011;46987;32.638;-115.438;2022-11-27T12:56:43;47.42;;;19.10;;
61104;SDS011;46987;32.638;-115.438;2022-11-27T12:59:15;47.80;;;20.75;;
61104;SDS011;46987;32.638;-115.438;2022-11-27T13:01:44;38.20;;;19.58;;
61104;SDS011;46987;32.638;-115.438;2022-11-27T13:04:18;47.90;;;19.52;;
61104;SDS011;46987;32.638;-115.438;2022-11-27T13:06:48;52.83;;;20.85;;
61104;SDS011;46987;32.638;-115.438;2022-11-27T13:09:18;49.38;;;21.35;;
61104;SDS011;46987;32.638;-115.438;2022-11-27T13:11:46;52.78;;;21.20;;
61104;SDS011;46987;32.638;-115.438;2022-11-27T13:14:13;48.08;;;22.52;;
61104;SDS011;46987;32.638;-115.438;2022-11-27T13:16:42;43.40;;;21.50;;
61104;SDS011;46987;32.638;-115.438;2022-11-27T13:19:13;50.92;;;23.52;;
61104;SDS011;46987;32.638;-115.438;2022-11-27T13:21:43;51.20;;;24.10;;
61104;SDS011;46987;32.638;-115.438;2022-11-27T13:24:11;47.95;;;23.02;;
61104;SDS011;46987;32.638;-115.438;2022-11-27T13:26:40;50.67;;;23.67;;
61104;SDS011;46987;32.638;-115.438;2022-11-27T13:29:14;49.35;;;22.58;;
61104;SDS011;46987;32.638;-115.438;2022-11-27T13:31:42;62.30;;;22.80;;
61104;SDS011;46987;32.638;-115.438;2022-11-27T13:34:15;49.10;;;23.27;;
61104;SDS011;46987;32.638;-115.438;2022-11-27T13:36:44;48.42;;;24.95;;
61104;SDS011;46987;32.638;-115.438;2022-11-27T13:39:20;46.47;;;24.75;;
61104;SDS011;46987;32.638;-115.438;2022-11-27T13:41:47;50.53;;;24.60;;
61104;SDS011;46987;32.638;-115.438;2022-11-27T13:44:23;53.80;;;25.40;;
61104;SDS011;46987;32.638;-115.438;2022-11-27T13:46:51;65.47;;;26.25;;
61104;SDS011;46987;32.638;-115.438;2022-11-27T13:49:21;54.42;;;26.05;;
61104;SDS011;46987;32.638;-115.438;2022-11-27T13:52:01;57.40;;;26.58;;
61104;SDS011;46987;32.638;-115.438;2022-11-27T13:54:28;44.20;;;26.65;;
61104;SDS011;46987;32.638;-115.438;2022-11-27T13:56:55;64.13;;;28.20;;
61104;SDS011;46987;32.638;-115.438;2022-11-27T13:59:22;57.15;;;28.38;;
61104;SDS011;46987;32.638;-115.438;2022-11-27T14:01:53;55.15;;;26.83;;
61104;SDS011;46987;32.638;-115.438;2022-11-27T14:04:19;57.92;;;28.95;;
61104;SDS011;46987;32.638;-115.438;2022-11-27T14:06:51;53.63;;;28.88;;
61104;SDS011;46987;32.638;-115.438;2022-11-27T14:11:45;61.45;;;29.83;;
61104;SDS011;46987;32.638;-115.438;2022-11-27T14:14:14;62.00;;;29.58;;
61104;SDS011;46987;32.638;-115.438;2022-11-27T14:16:41;63.83;;;31.05;;
61104;SDS011;46987;32.638;-115.438;2022-11-27T14:19:21;52.58;;;28.63;;
61104;SDS011;46987;32.638;-115.438;2022-11-27T14:21:48;59.47;;;30.05;;